Time;durP1;ratioP1;P1;durP2;ratioP2;P2;SDS_P1;SDS_P2;PMS_P1;PMS_P2;Temp;Humidity;BMP_temperature;BMP_pressure;BME280_temperature;BME280_humidity;BME280_pressure;Samples;Min_cycle;Max_cycle;Signal;HPM_P1;HPM_P2
2022/08/11 00:04:24;;;;;;;;;;;;;;;19.05;81.40;101471.00;10067531;29;20270;-70
2022/08/11 00:09:33;;;;;;;;;;;;;;;18.95;81.98;101466.84;10067368;29;19928;-70
2022/08/11 00:14:43;;;;;;;;;;;;;;;18.93;82.67;101471.31;10066991;29;19979;-70
2022/08/11 00:19:47;;;;;;;;;;;;;;;18.88;82.33;101475.84;10066592;29;20232;-69
2022/08/11 00:25:12;;;;;;;;;;;;;;;18.79;83.10;101479.59;10066350;29;19939;-72
2022/08/11 00:30:16;;;;;;;;;;;;;;;18.77;83.34;101467.34;10065936;29;19932;-72
2022/08/11 00:35:24;;;;;;;;;;;;;;;18.75;83.38;101474.41;10065740;29;19928;-73
2022/08/11 00:40:55;;;;;;;;;;;;;;;18.60;83.77;101473.06;10065517;29;19928;-70
2022/08/11 00:46:16;;;;;;;;;;;;;;;18.53;84.37;101471.47;10065357;29;20285;-73
2022/08/11 00:51:25;;;;;;;;;;;;;;;18.51;84.57;101475.03;10065362;29;19928;-70
2022/08/11 00:57:11;;;;;;;;;;;;;;;18.50;84.95;101476.78;10065018;29;19935;-71
2022/08/11 01:02:44;;;;;;;;;;;;;;;18.45;84.82;101476.03;10064662;29;20290;-72
2022/08/11 01:08:05;;;;;;;;;;;;;;;18.35;85.02;101477.13;10065127;29;20383;-70
2022/08/11 01:13:15;;;;;;;;;;;;;;;18.34;85.83;101480.69;10064496;29;20013;-73
2022/08/11 01:18:39;;;;;;;;;;;;;;;18.33;85.05;101485.06;10064117;29;19938;-72
2022/08/11 01:23:57;;;;;;;;;;;;;;;18.28;86.00;101472.94;10064228;29;19928;-71
2022/08/11 01:29:18;;;;;;;;;;;;;;;18.17;86.40;101475.81;10064005;29;19932;-73
2022/08/11 01:34:39;;;;;;;;;;;;;;;18.14;86.77;101480.25;10063772;29;19928;-71
2022/08/11 01:40:01;;;;;;;;;;;;;;;18.17;86.09;101473.19;10063717;29;19928;-72
2022/08/11 01:45:16;;;;;;;;;;;;;;;18.07;86.76;101481.31;10063285;29;19929;-71
2022/08/11 01:50:27;;;;;;;;;;;;;;;18.07;87.65;101474.28;10062957;29;19928;-72
2022/08/11 01:55:33;;;;;;;;;;;;;;;18.01;87.54;101470.94;10063212;29;19928;-71
2022/08/11 02:00:46;;;;;;;;;;;;;;;17.97;88.50;101475.41;10062980;29;20011;-69
2022/08/11 02:05:59;;;;;;;;;;;;;;;17.94;88.45;101486.00;10062798;29;19938;-72
2022/08/11 02:16:39;;;;;;;;;;;;;;;17.87;88.75;101483.53;10062667;29;19996;-70
2022/08/11 02:27:07;;;;;;;;;;;;;;;17.82;88.83;101482.75;10062896;29;19939;-74
2022/08/11 02:37:43;;;;;;;;;;;;;;;17.74;90.07;101489.94;10062021;29;19944;-70
2022/08/11 02:42:55;;;;;;;;;;;;;;;17.70;90.73;101486.53;10061939;29;19928;-75
2022/08/11 02:53:30;;;;;;;;;;;;;;;17.64;90.23;101494.50;10062145;29;19939;-70
2022/08/11 02:58:41;;;;;;;;;;;;;;;17.63;90.38;101505.94;10063499;29;19939;-76
2022/08/11 03:03:51;;;;;;;;;;;;;;;17.58;90.67;101494.66;10069206;29;19939;-72
2022/08/11 03:08:58;;;;;;;;;;;;;;;17.54;90.82;101502.59;10069301;29;19928;-72
2022/08/11 03:19:36;;;;;;;;;;;;;;;17.32;92.55;101505.63;10069096;29;19932;-70
2022/08/11 03:24:46;;;;;;;;;;;;;;;17.46;92.00;101505.41;10068545;29;20365;-71
2022/08/11 03:30:01;;;;;;;;;;;;;;;17.40;92.20;101501.97;10068404;29;20013;-70
2022/08/11 03:35:09;;;;;;;;;;;;;;;17.34;92.21;101503.00;10068096;29;19938;-74
2022/08/11 03:45:57;;;;;;;;;;;;;;;17.43;92.48;101509.81;10068112;29;19928;-72
2022/08/11 03:51:07;;;;;;;;;;;;;;;17.40;92.73;101513.34;10066659;29;20338;-73
2022/08/11 03:56:21;;;;;;;;;;;;;;;17.35;93.06;101504.72;10067695;29;19950;-71
2022/08/11 04:01:38;;;;;;;;;;;;;;;17.25;92.73;101508.41;10067148;29;19928;-74
2022/08/11 04:06:57;;;;;;;;;;;;;;;17.12;93.47;101502.50;10067373;29;20346;-71
2022/08/11 04:12:17;;;;;;;;;;;;;;;17.26;93.47;101503.13;10066573;29;19928;-73
2022/08/11 04:18:00;;;;;;;;;;;;;;;17.25;93.45;101505.78;10066922;29;20343;-73
2022/08/11 04:23:18;;;;;;;;;;;;;;;17.29;92.46;101512.72;10067355;29;19938;-70
2022/08/11 04:28:59;;;;;;;;;;;;;;;17.34;92.61;101513.50;10066222;29;19928;-74
2022/08/11 04:34:22;;;;;;;;;;;;;;;17.34;93.27;101514.34;10066343;29;19938;-76
2022/08/11 04:39:37;;;;;;;;;;;;;;;17.32;93.73;101510.88;10065890;29;19938;-72
2022/08/11 04:45:15;;;;;;;;;;;;;;;17.37;93.90;101518.66;10065591;29;19932;-72
2022/08/11 05:01:47;;;;;;;;;;;;;;;17.62;94.60;101524.34;10064858;29;19960;-73
2022/08/11 05:07:08;;;;;;;;;;;;;;;17.64;94.51;101522.53;10064716;29;19932;-72
2022/08/11 05:12:36;;;;;;;;;;;;;;;17.65;94.75;101514.66;10064331;29;19946;-72
2022/08/11 06:01:07;;;;;;;;;;;;;;;18.38;93.09;101503.34;10062884;29;19928;-72
2022/08/11 06:06:10;;;;;;;;;;;;;;;18.47;93.22;101499.66;9723972;29;9999825;-72
2022/08/11 06:11:16;;;;;;;;;;;;;;;18.56;92.96;101502.06;10058252;29;19942;-73
2022/08/11 06:16:25;;;;;;;;;;;;;;;18.64;92.64;101500.97;10055618;29;19929;-75
2022/08/11 06:21:33;;;;;;;;;;;;;;;18.76;92.40;101505.09;10026339;29;19997;-74
2022/08/11 06:26:37;;;;;;;;;;;;;;;18.85;91.88;101503.09;10058412;29;19928;-74
2022/08/11 06:32:02;;;;;;;;;;;;;;;18.99;91.77;101516.75;10058328;29;19968;-72
2022/08/11 06:37:15;;;;;;;;;;;;;;;19.10;91.35;101519.09;10059223;29;20266;-74
2022/08/11 06:42:33;;;;;;;;;;;;;;;19.21;91.14;101506.50;10058136;29;19929;-73
2022/08/11 06:47:47;;;;;;;;;;;;;;;19.33;90.82;101495.66;10058403;29;19928;-73
2022/08/11 06:52:53;;;;;;;;;;;;;;;19.43;90.50;101478.72;10057934;29;19947;-73
2022/08/11 07:03:27;;;;;;;;;;;;;;;19.59;90.32;101487.06;10023340;29;20039;-74
2022/08/11 07:30:17;;;;;;;;;;;;;;;20.09;87.44;101476.69;10057989;29;20335;-72
2022/08/11 07:35:23;;;;;;;;;;;;;;;20.19;87.15;101478.16;10057579;29;20560;-72
2022/08/11 07:40:28;;;;;;;;;;;;;;;20.34;86.32;101475.06;10057434;29;20564;-69
2022/08/11 07:56:18;;;;;;;;;;;;;;;20.62;85.14;101473.22;10063691;29;19928;-70
2022/08/11 08:17:52;;;;;;;;;;;;;;;21.11;80.40;101463.63;10063323;29;19936;-73
2022/08/11 08:23:31;;;;;;;;;;;;;;;21.20;79.10;101460.69;10063404;29;20023;-74
2022/08/11 08:28:45;;;;;;;;;;;;;;;21.29;78.06;101455.06;10062768;29;19932;-73
2022/08/11 08:33:48;;;;;;;;;;;;;;;21.38;77.36;101458.22;10062878;29;19928;-72
2022/08/11 08:38:53;;;;;;;;;;;;;;;21.45;76.75;101454.44;10062406;29;19990;-73
2022/08/11 08:43:58;;;;;;;;;;;;;;;21.59;75.82;101448.63;10061781;29;19932;-73
2022/08/11 08:49:26;;;;;;;;;;;;;;;21.66;75.86;101445.69;10061964;29;20390;-72
2022/08/11 08:54:34;;;;;;;;;;;;;;;21.77;75.32;101447.94;10064462;29;20418;-73
2022/08/11 08:59:40;;;;;;;;;;;;;;;21.87;74.31;101445.81;10064671;29;19928;-73
2022/08/11 09:04:51;;;;;;;;;;;;;;;21.99;73.11;101446.19;10064307;29;19932;-74
2022/08/11 09:09:57;;;;;;;;;;;;;;;22.08;72.24;101431.75;10064229;29;19928;-75
2022/08/11 09:15:06;;;;;;;;;;;;;;;22.18;72.39;101441.91;10063106;29;20087;-75
2022/08/11 09:20:15;;;;;;;;;;;;;;;22.30;71.96;101436.09;10064028;29;19928;-74
2022/08/11 09:30:42;;;;;;;;;;;;;;;22.59;69.98;101432.31;10063807;29;19954;-74
2022/08/11 09:35:46;;;;;;;;;;;;;;;22.87;68.63;101425.75;10063153;29;20358;-74
2022/08/11 09:40:52;;;;;;;;;;;;;;;22.93;68.41;101425.47;10064420;29;19928;-75
2022/08/11 09:46:01;;;;;;;;;;;;;;;23.27;66.86;101413.38;10063677;29;19942;-74
2022/08/11 09:51:05;;;;;;;;;;;;;;;23.56;65.59;101404.97;10064100;29;19938;-74
2022/08/11 10:01:48;;;;;;;;;;;;;;;23.65;65.85;101400.09;9983640;29;20385;-73
2022/08/11 10:07:05;;;;;;;;;;;;;;;23.55;65.43;101401.47;10046510;29;20388;-74
2022/08/11 10:12:23;;;;;;;;;;;;;;;23.89;63.85;101393.63;10059012;29;20414;-76
2022/08/11 10:18:40;;;;;;;;;;;;;;;24.00;63.21;101386.00;10058734;29;19980;-74
2022/08/11 10:28:30;;;;;;;;;;;;;;;24.02;63.52;101378.00;10058558;29;19928;-74
2022/08/11 10:34:02;;;;;;;;;;;;;;;24.55;62.15;101362.03;10058769;29;19928;-74
2022/08/11 10:39:06;;;;;;;;;;;;;;;24.94;60.74;101355.50;10058557;29;19932;-74
2022/08/11 10:44:12;;;;;;;;;;;;;;;25.21;59.59;101353.16;10058757;29;19929;-75
2022/08/11 10:49:17;;;;;;;;;;;;;;;25.55;58.76;101339.75;10057990;29;19928;-76
2022/08/11 10:59:46;;;;;;;;;;;;;;;26.27;56.22;101316.03;10058123;29;19943;-75
2022/08/11 11:05:08;;;;;;;;;;;;;;;26.20;56.09;101317.34;10058569;29;19929;-73
2022/08/11 11:10:12;;;;;;;;;;;;;;;26.40;55.29;101302.84;10057987;29;19932;-73
2022/08/11 11:21:05;;;;;;;;;;;;;;;26.87;54.46;101291.00;10061464;29;19943;-73
2022/08/11 11:26:13;;;;;;;;;;;;;;;26.37;55.48;101303.88;10064997;29;20015;-74
2022/08/11 11:31:25;;;;;;;;;;;;;;;26.05;54.85;101300.50;10065011;29;19932;-76
2022/08/11 11:36:36;;;;;;;;;;;;;;;25.72;55.48;101306.88;10065079;29;20483;-75
2022/08/11 11:41:39;;;;;;;;;;;;;;;25.65;55.92;101308.16;10064504;29;19932;-75
2022/08/11 11:46:44;;;;;;;;;;;;;;;26.28;53.71;101288.47;10064294;29;19942;-75
2022/08/11 11:51:51;;;;;;;;;;;;;;;26.87;52.30;101272.34;10067022;29;19939;-75
2022/08/11 11:56:55;;;;;;;;;;;;;;;27.22;50.39;101264.78;10066974;29;20358;-75
2022/08/11 12:01:59;;;;;;;;;;;;;;;27.76;49.61;101258.53;10066660;29;19928;-74
2022/08/11 12:17:46;;;;;;;;;;;;;;;27.10;51.82;101252.22;10066172;29;19928;-78
2022/08/11 12:28:17;;;;;;;;;;;;;;;26.64;52.29;101256.06;10065638;29;20018;-77
2022/08/11 12:33:21;;;;;;;;;;;;;;;27.40;51.52;101239.63;10065395;29;19936;-76
2022/08/11 12:38:27;;;;;;;;;;;;;;;28.02;49.44;101241.63;10081774;29;20011;-74
2022/08/11 12:54:27;;;;;;;;;;;;;;;27.57;48.40;101235.81;10065143;29;20298;-75
2022/08/11 13:04:59;;;;;;;;;;;;;;;26.59;50.39;101242.19;10064688;29;19936;-75
2022/08/11 13:10:05;;;;;;;;;;;;;;;26.48;50.70;101239.31;9714627;29;10000152;-76
2022/08/11 13:15:20;;;;;;;;;;;;;;;26.78;50.99;101243.63;10060958;29;19928;-66
2022/08/11 13:20:24;;;;;;;;;;;;;;;26.73;50.16;101243.03;10058228;29;19932;-67
2022/08/11 13:25:30;;;;;;;;;;;;;;;26.35;50.20;101236.56;10044543;29;20479;-67
2022/08/11 13:35:54;;;;;;;;;;;;;;;26.23;50.38;101236.44;10058678;29;20262;-68
2022/08/11 13:40:59;;;;;;;;;;;;;;;26.43;50.09;101230.75;10056706;29;19932;-70
2022/08/11 13:51:31;;;;;;;;;;;;;;;27.02;49.81;101220.75;10058046;29;19938;-69
2022/08/11 13:56:39;;;;;;;;;;;;;;;26.73;50.53;101228.88;10057737;29;20263;-66
2022/08/11 14:01:47;;;;;;;;;;;;;;;26.91;50.62;101231.22;10057457;29;19935;-68
2022/08/11 14:07:13;;;;;;;;;;;;;;;27.04;50.04;101229.47;10044167;29;19928;-71
2022/08/11 14:17:42;;;;;;;;;;;;;;;26.04;51.72;101236.72;10057375;29;19939;-65
2022/08/11 14:22:51;;;;;;;;;;;;;;;25.79;52.20;101255.03;10056923;29;20414;-70
2022/08/11 14:27:56;;;;;;;;;;;;;;;25.60;52.37;101249.94;10056702;29;19928;-67
2022/08/11 14:33:19;;;;;;;;;;;;;;;25.38;52.12;101248.59;10056666;29;20262;-68
2022/08/11 14:38:24;;;;;;;;;;;;;;;25.29;52.61;101251.72;10056171;29;19939;-69
2022/08/11 14:49:10;;;;;;;;;;;;;;;25.56;53.61;101243.06;10053194;29;19928;-70
2022/08/11 14:59:35;;;;;;;;;;;;;;;25.39;54.77;101235.19;10066823;29;20026;-69
2022/08/11 15:04:39;;;;;;;;;;;;;;;25.44;54.56;101232.28;9726768;29;10000443;-68
2022/08/11 15:09:42;;;;;;;;;;;;;;;25.33;55.09;101218.72;10063701;29;20018;-72
2022/08/11 15:25:57;;;;;;;;;;;;;;;25.22;57.17;101224.63;10062983;29;19928;-72
2022/08/11 15:47:07;;;;;;;;;;;;;;;25.16;57.15;101202.88;10062467;29;19936;-69
2022/08/11 15:52:13;;;;;;;;;;;;;;;25.03;56.44;101195.59;10061983;29;19928;-69
2022/08/11 16:08:05;;;;;;;;;;;;;;;24.74;57.38;101199.03;10022998;29;19932;-68
2022/08/11 16:18:41;;;;;;;;;;;;;;;24.51;57.93;101193.19;10027688;29;19935;-68
2022/08/11 16:23:45;;;;;;;;;;;;;;;24.41;58.32;101198.16;10069544;29;19931;-69
2022/08/11 16:28:50;;;;;;;;;;;;;;;24.32;57.92;101195.13;9779413;29;10000792;-70
2022/08/11 16:33:55;;;;;;;;;;;;;;;24.22;59.86;101200.06;10062157;29;19936;-68
2022/08/11 16:38:59;;;;;;;;;;;;;;;24.18;59.96;101203.81;10063598;29;19935;-71
2022/08/11 16:49:45;;;;;;;;;;;;;;;24.02;60.12;101195.81;10063316;29;19936;-70
2022/08/11 16:54:54;;;;;;;;;;;;;;;23.92;60.48;101191.88;10062601;29;20418;-68
2022/08/11 17:00:00;;;;;;;;;;;;;;;23.90;61.08;101195.56;10062005;29;20381;-70
2022/08/11 17:16:10;;;;;;;;;;;;;;;23.67;63.32;101193.22;10061229;29;19938;-72
2022/08/11 17:21:18;;;;;;;;;;;;;;;23.56;64.41;101192.91;10061118;29;20004;-73
2022/08/11 17:26:24;;;;;;;;;;;;;;;23.48;66.08;101200.38;10060718;29;20377;-73
2022/08/11 17:36:50;;;;;;;;;;;;;;;23.31;69.12;101213.59;10060473;29;19932;-71
